Skip to main content.
 TIME   TEMPERATURE   WINDSPEED   DIRECTION   HUMIDITY   BAROMETER   RAINFALL 
7:40 27.3°C (81.1°F) 3.7 kmh (2.3 mph) SW 86% 1012.4hPa (29.90 inHg) 0.0mm (0.00 in.)
6:40 28.3°C (82.9 °F) 7.4 kmh (4.6 mph) WSW 83% 1012.3hPa (29.89 inHg) 0.0mm (0.00 in.)
5:40 28.9°C (84.0 °F) 5.6 kmh (3.5 mph) SW 77% 1011.9hPa (29.88 inHg) 0.0mm (0.00 in.)
4:40 29.5°C (85.1 °F) 20.4 kmh (12.7 mph) SW 73% 1011.4hPa (29.87 inHg) 0.0mm (0.00 in.)
3:40 30.4°C (86.7 °F) 9.3 kmh (5.8 mph) SSW 68% 1012.4hPa (29.90 inHg) 0.0mm (0.00 in.)
2:40 33.0°C (91.4 °F) 7.4 kmh (4.6 mph) S 49% 1012.4hPa (29.90 inHg) 0.0mm (0.00 in.)
1:40 34.7°C (94.5 °F) 3.7 kmh (2.3 mph) ESE 31% 1013.0hPa (29.91 inHg) 0.0mm (0.00 in.)
12:40 33.0°C (91.4 °F) 5.6 kmh (3.5 mph) NE 32% 1013.4hPa (29.93 inHg) 0.0mm (0.00 in.)
11:40 31.3°C (88.3 °F) 5.6 kmh (3.5 mph) ENE 49% 1013.7hPa (29.93 inHg) 0.0mm (0.00 in.)
10:40 30.8°C (87.4 °F) 7.4 kmh (4.6 mph) ENE 55% 1013.6hPa (29.93 inHg) 0.0mm (0.00 in.)
9:40 29.3°C (84.7 °F) 7.4 kmh (4.6 mph) ESE 68% 1013.1hPa (29.92 inHg) 0.0mm (0.00 in.)
8:40 27.7°C (81.9 °F) 5.6 kmh (3.5 mph) SE 77% 1012.9hPa (29.91 inHg) 0.0mm (0.00 in.)
7:40 26.1°C (79.0 °F) 0.0 kmh (0.0 mph) E 84% 1012.4hPa (29.90 inHg) 0.0mm (0.00 in.)
6:40 25.1°C (77.2 °F) 0.0 kmh (0.0 mph) E 86% 1011.9hPa (29.88 inHg) 0.0mm (0.00 in.)
5:40 24.8°C (76.6 °F) 0.0 kmh (0.0 mph) E 87% 1011.6hPa (29.87 inHg) 0.0mm (0.00 in.)
4:40 24.9°C (76.8 °F) 0.0 kmh (0.0 mph) E 87% 1011.2hPa (29.86 inHg) 0.0mm (0.00 in.)
3:40 24.9°C (76.8 °F) 3.7 kmh (2.3 mph) SSE 93% 1011.3hPa (29.86 inHg) 0.0mm (0.00 in.)
2:40 25.2°C (77.4 °F) 1.9 kmh (1.2 mph) SSW 93% 1011.2hPa (29.86 inHg) 0.0mm (0.00 in.)
1:40 25.4°C (77.7 °F) 0.0 kmh (0.0 mph) W 91% 1011.8hPa (29.88 inHg) 0.0mm (0.00 in.)
12:40 25.5°C (77.9 °F) 0.0 kmh (0.0 mph) W 91% 1011.8hPa (29.88 inHg) 0.0mm (0.00 in.)
11:40 25.7°C (78.3 °F) 0.0 kmh (0.0 mph) W 90% 1011.4hPa (29.87 inHg) 0.0mm (0.00 in.)
10:40 26.0°C (78.8 °F) 1.9 kmh (1.2 mph) W 88% 1011.2hPa (29.86 inHg) 0.0mm (0.00 in.)
9:40 26.0°C (78.8 °F) 9.3 kmh (5.8 mph) NNE 89% 1011.4hPa (29.87 inHg) 0.0mm (0.00 in.)
8:40 25.9°C (78.6 °F) 3.7 kmh (2.3 mph) WNW 91% 1011.0hPa (29.85 inHg) 0.0mm (0.00 in.)